createdAt,value
2023-02-11T00:00:23.217Z,28.20
2023-02-11T00:04:34.929Z,30.67
2023-02-11T00:08:47.222Z,30.10
2023-02-11T00:10:54.753Z,30.75
2023-02-11T00:12:59.595Z,32.47
2023-02-11T00:15:04.394Z,31.30
2023-02-11T00:17:09.589Z,31.42
2023-02-11T00:21:21.332Z,30.88
2023-02-11T00:23:26.230Z,30.73
2023-02-11T00:25:33.668Z,30.30
2023-02-11T00:27:39.668Z,30.90
2023-02-11T00:29:44.584Z,29.77
2023-02-11T00:31:49.461Z,31.25
2023-02-11T00:33:54.832Z,30.75
2023-02-11T00:35:59.717Z,30.55
2023-02-11T00:38:04.603Z,28.90
2023-02-11T00:42:18.094Z,29.23
2023-02-11T00:44:23.342Z,30.05
2023-02-11T00:46:28.455Z,27.35
2023-02-11T00:48:33.401Z,29.27
2023-02-11T00:50:38.855Z,30.30
2023-02-11T00:52:46.621Z,27.55
2023-02-11T00:54:51.465Z,29.55
2023-02-11T00:56:56.285Z,30.15
2023-02-11T00:59:05.358Z,28.00
2023-02-11T01:01:10.259Z,27.83
2023-02-11T01:03:15.054Z,30.30
2023-02-11T01:05:20.063Z,31.15
2023-02-11T01:07:26.498Z,29.85
2023-02-11T01:09:32.684Z,32.42
2023-02-11T01:11:37.537Z,31.48
2023-02-11T01:13:42.724Z,30.67
2023-02-11T01:15:50.508Z,32.65
2023-02-11T01:17:55.657Z,32.70
2023-02-11T01:20:00.493Z,32.15
2023-02-11T01:22:05.364Z,31.55
2023-02-11T01:24:14.105Z,28.60
2023-02-11T01:26:22.634Z,29.95
2023-02-11T01:28:30.793Z,28.55
2023-02-11T01:30:38.009Z,28.00
2023-02-11T01:32:45.446Z,26.85
2023-02-11T01:34:50.274Z,29.27
2023-02-11T01:37:00.046Z,30.73
2023-02-11T01:39:08.697Z,30.20
2023-02-11T01:41:17.431Z,31.20
2023-02-11T01:43:23.683Z,32.08
2023-02-11T01:45:53.521Z,28.17
2023-02-11T01:48:02.615Z,26.27
2023-02-11T01:50:07.928Z,26.05
2023-02-11T01:52:16.548Z,28.85
2023-02-11T01:54:37.639Z,28.60
2023-02-11T01:57:02.782Z,28.10
2023-02-11T01:59:14.580Z,27.67
2023-02-11T02:01:26.080Z,27.10
2023-02-11T02:03:36.493Z,27.45
2023-02-11T02:05:50.139Z,31.65
2023-02-11T02:08:03.202Z,31.17
2023-02-11T02:10:14.274Z,32.40
2023-02-11T02:12:19.121Z,29.65
2023-02-11T02:14:24.067Z,31.38
2023-02-11T02:16:36.459Z,29.52
2023-02-11T02:18:51.600Z,28.80
2023-02-11T02:21:35.072Z,31.08
2023-02-11T02:23:59.681Z,30.17
2023-02-11T02:26:36.864Z,30.05
2023-02-11T02:29:22.345Z,30.13
2023-02-11T02:31:41.881Z,28.60
2023-02-11T02:33:56.653Z,27.58
2023-02-11T02:36:12.302Z,27.30
2023-02-11T02:40:32.328Z,25.80
2023-02-11T02:42:37.868Z,25.48
2023-02-11T02:44:42.823Z,25.10
2023-02-11T02:46:47.658Z,25.90
2023-02-11T02:48:56.759Z,24.38
2023-02-11T02:51:12.362Z,23.50
2023-02-11T02:55:40.578Z,27.23
2023-02-11T02:58:04.569Z,25.05
2023-02-11T03:00:18.432Z,21.95
2023-02-11T03:02:29.491Z,24.33
2023-02-11T03:04:46.692Z,25.58
2023-02-11T03:06:57.986Z,22.75
2023-02-11T03:09:11.385Z,26.13
2023-02-11T03:11:20.093Z,23.27
2023-02-11T03:13:32.131Z,25.15
2023-02-11T03:15:44.086Z,24.55
2023-02-11T03:17:53.381Z,24.98
2023-02-11T03:20:02.746Z,24.05
2023-02-11T03:22:14.794Z,24.15
2023-02-11T03:24:25.241Z,25.27
2023-02-11T03:26:36.632Z,23.50
2023-02-11T03:28:47.499Z,23.30
2023-02-11T03:30:59.911Z,21.40
2023-02-11T03:33:10.156Z,22.45
2023-02-11T03:35:22.689Z,25.15
2023-02-11T03:37:32.370Z,21.63
2023-02-11T03:39:42.022Z,23.90
2023-02-11T03:41:48.717Z,22.30
2023-02-11T03:43:56.234Z,22.83
2023-02-11T03:46:03.184Z,22.83
2023-02-11T03:48:14.542Z,22.50
2023-02-11T03:50:24.189Z,22.15
2023-02-11T03:52:30.061Z,25.13
2023-02-11T03:54:35.040Z,23.02
2023-02-11T03:56:46.533Z,24.40
2023-02-11T03:58:51.827Z,23.88
2023-02-11T04:03:01.352Z,22.55
2023-02-11T04:05:06.835Z,25.20
2023-02-11T04:07:15.304Z,24.95
2023-02-11T04:09:20.175Z,24.65
2023-02-11T04:11:25.032Z,24.83
2023-02-11T04:13:29.884Z,24.38
2023-02-11T04:15:34.799Z,24.67
2023-02-11T04:17:39.737Z,21.60
2023-02-11T04:19:44.835Z,22.27
2023-02-11T04:23:56.833Z,24.80
2023-02-11T04:26:01.852Z,21.35
2023-02-11T04:28:06.771Z,22.52
2023-02-11T04:30:12.796Z,22.88
2023-02-11T04:32:17.844Z,23.45
2023-02-11T04:34:22.668Z,22.50
2023-02-11T04:36:27.592Z,20.20
2023-02-11T04:38:32.498Z,22.33
2023-02-11T04:40:39.957Z,21.90
2023-02-11T04:42:44.834Z,22.55
2023-02-11T04:44:49.707Z,22.55
2023-02-11T04:46:54.579Z,21.35
2023-02-11T04:48:59.462Z,21.52
2023-02-11T04:51:04.609Z,21.00
2023-02-11T04:55:14.034Z,20.60
2023-02-11T04:57:21.562Z,21.95
2023-02-11T04:59:27.563Z,20.83
2023-02-11T05:01:32.448Z,20.15
2023-02-11T05:03:38.239Z,19.98
2023-02-11T05:05:44.224Z,21.20
2023-02-11T05:07:49.017Z,20.17
2023-02-11T05:09:53.880Z,19.77
2023-02-11T05:11:58.688Z,18.85
2023-02-11T05:14:06.105Z,19.50
2023-02-11T05:16:11.014Z,18.63
2023-02-11T05:18:16.309Z,18.83
2023-02-11T05:20:21.693Z,20.70
2023-02-11T05:22:26.566Z,19.73
2023-02-11T05:24:31.444Z,20.02
2023-02-11T05:26:36.275Z,19.77
2023-02-11T05:28:41.298Z,18.05
2023-02-11T05:30:48.794Z,19.00
2023-02-11T05:32:54.365Z,20.38
2023-02-11T05:34:59.357Z,20.52
2023-02-11T05:37:04.242Z,18.30
2023-02-11T05:39:09.111Z,19.40
2023-02-11T05:41:14.639Z,19.35
2023-02-11T05:43:19.510Z,20.60
2023-02-11T05:45:24.313Z,19.38
2023-02-11T05:47:31.855Z,19.50
2023-02-11T05:49:37.719Z,17.63
2023-02-11T05:51:42.527Z,19.48
2023-02-11T05:53:47.329Z,17.48
2023-02-11T05:55:52.475Z,18.00
2023-02-11T05:57:57.579Z,19.40
2023-02-11T06:00:02.449Z,18.25
2023-02-11T06:02:17.313Z,19.90
2023-02-11T06:04:24.777Z,20.70
2023-02-11T06:06:29.565Z,18.95
2023-02-11T06:08:34.438Z,19.15
2023-02-11T06:10:42.514Z,18.85
2023-02-11T06:12:47.683Z,20.23
2023-02-11T06:14:52.502Z,19.08
2023-02-11T06:16:57.313Z,19.42
2023-02-11T06:19:02.164Z,21.08
2023-02-11T06:21:13.133Z,19.02
2023-02-11T06:23:17.969Z,19.42
2023-02-11T06:25:22.992Z,18.60
2023-02-11T06:27:27.845Z,19.27
2023-02-11T06:29:34.079Z,19.60
2023-02-11T06:31:43.111Z,19.40
2023-02-11T06:33:48.043Z,18.40
2023-02-11T06:35:53.104Z,18.67
2023-02-11T06:38:00.893Z,19.27
2023-02-11T06:40:05.740Z,18.38
2023-02-11T06:42:12.090Z,18.88
2023-02-11T06:44:16.909Z,20.17
2023-02-11T06:46:21.819Z,21.45
2023-02-11T06:48:27.113Z,21.58
2023-02-11T06:50:32.106Z,22.20
2023-02-11T06:52:36.912Z,19.50
2023-02-11T06:54:44.398Z,18.45
2023-02-11T06:56:49.281Z,18.42
2023-02-11T06:58:56.273Z,19.48
2023-02-11T07:01:01.517Z,20.25
2023-02-11T07:03:06.637Z,19.17
2023-02-11T07:05:12.171Z,18.70
2023-02-11T07:07:17.073Z,18.25
2023-02-11T07:09:22.102Z,18.42
2023-02-11T07:11:31.561Z,19.05
2023-02-11T07:13:36.477Z,19.85
2023-02-11T07:15:41.434Z,19.30
2023-02-11T07:17:46.265Z,19.20
2023-02-11T07:19:51.141Z,19.20
2023-02-11T07:21:56.040Z,18.38
2023-02-11T07:24:00.854Z,19.23
2023-02-11T07:26:06.997Z,18.25
2023-02-11T07:28:14.656Z,19.60
2023-02-11T07:30:19.541Z,18.45
2023-02-11T07:32:24.436Z,18.30
2023-02-11T07:34:29.307Z,20.02
2023-02-11T07:36:35.188Z,17.08
2023-02-11T07:38:40.883Z,16.42
2023-02-11T07:40:46.405Z,16.52
2023-02-11T07:42:51.360Z,17.58
2023-02-11T07:44:58.784Z,17.38
2023-02-11T07:47:03.733Z,16.95
2023-02-11T07:49:08.623Z,17.65
2023-02-11T07:51:15.781Z,16.33
2023-02-11T07:53:20.625Z,16.42
2023-02-11T07:55:25.467Z,15.75
2023-02-11T07:57:30.507Z,18.10
2023-02-11T07:59:35.521Z,17.05
2023-02-11T08:01:46.079Z,16.77
2023-02-11T08:03:51.176Z,15.60
2023-02-11T08:05:56.094Z,18.50
2023-02-11T08:08:00.901Z,18.80
2023-02-11T08:10:05.813Z,15.80
2023-02-11T08:12:10.713Z,15.23
2023-02-11T08:14:15.932Z,16.85
2023-02-11T08:18:29.876Z,17.83
2023-02-11T08:20:34.701Z,18.17
2023-02-11T08:22:42.562Z,17.27
2023-02-11T08:24:47.412Z,17.67
2023-02-11T08:26:52.517Z,21.00
2023-02-11T08:31:08.842Z,17.20
2023-02-11T08:33:13.753Z,18.70
2023-02-11T08:35:21.349Z,17.80
2023-02-11T08:37:26.177Z,16.55
2023-02-11T08:39:31.031Z,17.05
2023-02-11T08:41:36.352Z,19.73
2023-02-11T08:43:42.396Z,19.80
2023-02-11T08:45:47.771Z,16.90
2023-02-11T08:47:52.604Z,16.48
2023-02-11T08:49:57.417Z,16.92
2023-02-11T08:52:05.022Z,18.20
2023-02-11T08:54:10.228Z,28.13
2023-02-11T08:58:21.286Z,15.80
2023-02-11T09:00:26.419Z,16.98
2023-02-11T09:02:31.272Z,17.30
2023-02-11T09:04:36.144Z,16.52
2023-02-11T09:06:41.075Z,16.35
2023-02-11T09:08:50.745Z,18.10
2023-02-11T09:10:58.889Z,17.58
2023-02-11T09:13:03.882Z,16.55
2023-02-11T09:15:09.468Z,17.60
2023-02-11T09:17:14.296Z,14.98
2023-02-11T09:19:19.493Z,15.80
2023-02-11T09:23:28.859Z,16.02
2023-02-11T09:25:36.288Z,15.65
2023-02-11T09:27:41.117Z,16.02
2023-02-11T09:29:45.904Z,14.82
2023-02-11T09:31:51.132Z,15.55
2023-02-11T09:36:04.050Z,15.20
2023-02-11T09:38:08.900Z,14.45
2023-02-11T09:40:15.301Z,14.70
2023-02-11T09:42:48.069Z,14.88
2023-02-11T09:44:53.601Z,15.20
2023-02-11T09:47:00.962Z,14.70
2023-02-11T09:49:07.546Z,15.63
2023-02-11T09:51:23.930Z,14.30
2023-02-11T09:53:30.634Z,15.68
2023-02-11T09:55:39.874Z,17.67
2023-02-11T09:57:47.418Z,19.95
2023-02-11T09:59:52.252Z,18.38
2023-02-11T10:02:01.776Z,19.65
2023-02-11T10:04:17.037Z,17.67
2023-02-11T10:06:41.869Z,15.07
2023-02-11T10:09:00.256Z,14.93
2023-02-11T10:11:29.691Z,15.57
2023-02-11T10:13:50.462Z,18.50
2023-02-11T10:16:02.266Z,18.15
2023-02-11T10:18:42.329Z,14.77
2023-02-11T10:20:52.785Z,15.27
2023-02-11T10:23:01.358Z,15.88
2023-02-11T10:25:20.136Z,15.57
2023-02-11T10:27:31.432Z,17.17
2023-02-11T10:29:44.936Z,18.48
2023-02-11T10:31:51.431Z,17.23
2023-02-11T10:34:02.577Z,16.60
2023-02-11T10:36:09.019Z,18.33
2023-02-11T10:38:14.900Z,18.10
2023-02-11T10:40:22.560Z,17.73
2023-02-11T10:42:29.614Z,18.30
2023-02-11T10:44:40.958Z,17.50
2023-02-11T10:46:46.386Z,17.35
2023-02-11T10:48:54.314Z,17.13
2023-02-11T10:51:12.304Z,18.00
2023-02-11T10:53:24.506Z,16.10
2023-02-11T10:55:30.665Z,19.08
2023-02-11T10:57:44.755Z,15.93
2023-02-11T10:59:52.289Z,17.55
2023-02-11T11:02:01.074Z,16.38
2023-02-11T11:04:05.964Z,16.80
2023-02-11T11:06:12.772Z,17.50
2023-02-11T11:08:18.629Z,18.92
2023-02-11T11:10:30.849Z,18.10
2023-02-11T11:12:49.558Z,19.67
2023-02-11T11:15:01.395Z,18.20
2023-02-11T11:17:16.179Z,17.90
2023-02-11T11:19:25.445Z,18.73
2023-02-11T11:21:36.498Z,18.77
2023-02-11T11:23:42.803Z,18.70
2023-02-11T11:25:49.436Z,18.38
2023-02-11T11:27:55.173Z,19.55
2023-02-11T11:30:03.551Z,20.02
2023-02-11T11:32:15.327Z,18.58
2023-02-11T11:34:31.840Z,17.95
2023-02-11T11:36:40.166Z,18.23
2023-02-11T11:38:48.554Z,19.05
2023-02-11T11:41:32.949Z,19.92
2023-02-11T11:43:37.812Z,19.55
2023-02-11T11:45:56.261Z,17.35
2023-02-11T11:48:06.638Z,19.13
2023-02-11T11:50:27.974Z,26.70
2023-02-11T11:52:42.881Z,21.45
2023-02-11T11:54:53.460Z,20.63
2023-02-11T11:57:06.097Z,20.50
2023-02-11T11:59:17.515Z,20.83
2023-02-11T12:01:37.323Z,19.23
2023-02-11T12:04:15.694Z,21.90
2023-02-11T12:06:34.583Z,21.15
2023-02-11T12:08:53.703Z,21.45
2023-02-11T12:11:12.564Z,20.15
2023-02-11T12:13:36.800Z,20.90
2023-02-11T12:15:52.318Z,20.40
2023-02-11T12:20:27.266Z,19.92
2023-02-11T12:22:46.265Z,18.90
2023-02-11T12:25:06.636Z,20.48
2023-02-11T12:27:18.797Z,20.83
2023-02-11T12:29:34.942Z,20.85
2023-02-11T12:31:52.712Z,20.52
2023-02-11T12:34:36.927Z,21.95
2023-02-11T12:37:02.541Z,20.25
2023-02-11T12:39:22.237Z,21.63
2023-02-11T12:41:56.473Z,22.08
2023-02-11T12:44:02.021Z,18.65
2023-02-11T12:46:28.812Z,20.13
2023-02-11T12:48:59.852Z,19.80
2023-02-11T12:51:15.872Z,20.77
2023-02-11T12:53:35.018Z,20.95
2023-02-11T12:55:43.907Z,20.42
2023-02-11T12:57:51.538Z,21.60
2023-02-11T13:00:04.393Z,18.90
2023-02-11T13:02:21.574Z,29.02
2023-02-11T13:04:31.799Z,18.80
2023-02-11T13:06:44.601Z,19.55
2023-02-11T13:08:52.214Z,19.80
2023-02-11T13:11:00.630Z,24.17
2023-02-11T13:13:21.007Z,24.77
2023-02-11T13:15:26.830Z,24.80
2023-02-11T13:17:36.502Z,20.75
2023-02-11T13:19:46.950Z,28.00
2023-02-11T13:22:12.220Z,25.15
2023-02-11T13:24:26.580Z,19.08
2023-02-11T13:26:36.854Z,18.42
2023-02-11T13:28:47.698Z,25.77
2023-02-11T13:31:02.468Z,20.45
2023-02-11T13:33:22.506Z,17.58
2023-02-11T13:35:33.019Z,19.67
2023-02-11T13:37:42.387Z,18.13
2023-02-11T13:39:59.729Z,18.45
2023-02-11T13:42:07.558Z,19.63
2023-02-11T13:44:29.022Z,30.13
2023-02-11T13:46:54.331Z,25.50
2023-02-11T13:49:00.795Z,17.77
2023-02-11T13:51:09.094Z,19.80
2023-02-11T13:53:17.355Z,17.35
2023-02-11T13:55:26.352Z,18.20
2023-02-11T13:57:41.945Z,18.98
2023-02-11T13:59:48.941Z,17.73
2023-02-11T14:02:21.906Z,20.33
2023-02-11T14:04:41.088Z,22.52
2023-02-11T14:07:38.295Z,19.58
2023-02-11T14:09:45.787Z,32.72
2023-02-11T14:11:55.445Z,32.25
2023-02-11T14:14:19.233Z,18.40
2023-02-11T14:16:37.484Z,22.95
2023-02-11T14:19:01.962Z,22.92
2023-02-11T14:21:15.674Z,22.58
2023-02-11T14:23:31.139Z,23.50
2023-02-11T14:25:41.822Z,18.42
2023-02-11T14:27:55.371Z,17.85
2023-02-11T14:30:23.521Z,24.85
2023-02-11T14:32:42.759Z,29.98
2023-02-11T14:34:59.863Z,18.20
2023-02-11T14:37:17.134Z,26.30
2023-02-11T14:39:33.529Z,29.80
2023-02-11T14:41:44.586Z,19.13
2023-02-11T14:43:55.465Z,30.80
2023-02-11T14:46:01.627Z,30.25
2023-02-11T14:48:11.666Z,22.95
2023-02-11T14:50:22.163Z,22.40
2023-02-11T14:52:31.392Z,23.30
2023-02-11T14:54:37.935Z,19.65
2023-02-11T14:56:46.937Z,19.40
2023-02-11T14:58:54.559Z,19.05
2023-02-11T15:01:02.036Z,24.40
2023-02-11T15:03:07.069Z,24.52
2023-02-11T15:05:26.231Z,23.38
2023-02-11T15:07:31.320Z,28.23
2023-02-11T15:09:43.392Z,20.63
2023-02-11T15:11:52.337Z,22.10
2023-02-11T15:13:59.854Z,24.08
2023-02-11T15:16:10.119Z,20.55
2023-02-11T15:18:24.332Z,22.83
2023-02-11T15:20:32.033Z,21.85
2023-02-11T15:22:43.324Z,24.67
2023-02-11T15:24:48.600Z,21.52
2023-02-11T15:29:06.161Z,22.48
2023-02-11T15:31:19.366Z,21.33
2023-02-11T15:33:26.176Z,19.52
2023-02-11T15:35:35.197Z,19.02
2023-02-11T15:37:40.118Z,21.75
2023-02-11T15:39:45.595Z,21.73
2023-02-11T15:41:53.479Z,21.67
2023-02-11T15:44:00.992Z,20.60
2023-02-11T15:46:06.145Z,20.08
2023-02-11T15:50:24.270Z,21.52
2023-02-11T15:52:31.024Z,21.90
2023-02-11T15:54:35.952Z,20.60
2023-02-11T15:56:44.359Z,21.98
2023-02-11T15:58:52.087Z,20.77
2023-02-11T16:01:00.210Z,21.42
2023-02-11T16:03:05.407Z,18.85
2023-02-11T16:05:12.503Z,20.92
2023-02-11T16:07:41.555Z,19.60
2023-02-11T16:09:46.660Z,21.45
2023-02-11T16:11:58.965Z,30.83
2023-02-11T16:14:07.113Z,25.08
2023-02-11T16:16:24.876Z,22.67
2023-02-11T16:18:39.544Z,21.75
2023-02-11T16:20:50.600Z,20.58
2023-02-11T16:22:56.013Z,23.02
2023-02-11T16:25:02.599Z,23.52
2023-02-11T16:27:11.217Z,26.00
2023-02-11T16:29:18.712Z,22.70
2023-02-11T16:31:26.516Z,21.38
2023-02-11T16:33:31.816Z,22.48
2023-02-11T16:35:37.515Z,21.23
2023-02-11T16:37:42.433Z,20.55
2023-02-11T16:39:47.729Z,56.28
2023-02-11T16:41:53.848Z,23.75
2023-02-11T16:44:01.454Z,21.25
2023-02-11T16:46:08.932Z,21.55
2023-02-11T16:48:20.937Z,21.67
2023-02-11T16:50:28.522Z,22.88
2023-02-11T16:52:33.497Z,38.72
2023-02-11T16:56:43.712Z,21.65
2023-02-11T16:58:48.720Z,26.67
2023-02-11T17:00:54.124Z,25.30
2023-02-11T17:02:59.547Z,46.90
2023-02-11T17:05:09.416Z,26.90
2023-02-11T17:07:14.655Z,29.10
2023-02-11T17:09:22.565Z,26.50
2023-02-11T17:11:27.382Z,31.30
2023-02-11T17:13:32.313Z,25.45
2023-02-11T17:15:39.625Z,24.77
2023-02-11T17:17:45.939Z,33.25
2023-02-11T17:19:51.452Z,27.48
2023-02-11T17:21:58.992Z,23.17
2023-02-11T17:24:03.959Z,21.92
2023-02-11T17:26:09.256Z,24.13
2023-02-11T17:30:19.690Z,22.35
2023-02-11T17:32:24.968Z,22.05
2023-02-11T17:34:30.320Z,23.38
2023-02-11T17:36:36.720Z,20.92
2023-02-11T17:38:44.262Z,22.35
2023-02-11T17:40:49.234Z,21.30
2023-02-11T17:42:54.089Z,23.25
2023-02-11T17:44:59.054Z,21.75
2023-02-11T17:49:08.863Z,21.10
2023-02-11T17:51:25.344Z,21.77
2023-02-11T17:53:30.130Z,22.30
2023-02-11T17:55:38.914Z,22.27
2023-02-11T17:57:43.813Z,23.15
2023-02-11T17:59:49.248Z,24.55
2023-02-11T18:01:54.885Z,32.67
2023-02-11T18:06:06.206Z,24.70
2023-02-11T18:08:11.241Z,27.30
2023-02-11T18:10:16.455Z,25.50
2023-02-11T18:12:25.798Z,24.27
2023-02-11T18:14:31.004Z,23.70
2023-02-11T18:18:41.774Z,25.95
2023-02-11T18:20:48.299Z,26.17
2023-02-11T18:22:56.301Z,25.77
2023-02-11T18:25:01.506Z,29.55
2023-02-11T18:29:14.289Z,25.25
2023-02-11T18:31:20.277Z,24.70
2023-02-11T18:33:25.263Z,30.15
2023-02-11T18:35:30.465Z,26.90
2023-02-11T18:39:40.494Z,36.83
2023-02-11T18:41:45.404Z,27.73
2023-02-11T18:43:50.208Z,33.75
2023-02-11T18:46:00.213Z,27.15
2023-02-11T18:48:05.409Z,42.13
2023-02-11T18:50:13.873Z,25.23
2023-02-11T18:52:18.875Z,25.67
2023-02-11T18:54:23.775Z,29.08
2023-02-11T18:56:29.484Z,44.45
2023-02-11T18:58:34.333Z,25.95
2023-02-11T19:00:41.458Z,23.20
2023-02-11T19:02:49.163Z,25.25
2023-02-11T19:04:56.498Z,26.20
2023-02-11T19:07:04.354Z,22.90
2023-02-11T19:09:12.162Z,24.48
2023-02-11T19:11:18.864Z,24.95
2023-02-11T19:13:23.765Z,22.85
2023-02-11T19:15:29.582Z,23.55
2023-02-11T19:17:34.418Z,23.10
2023-02-11T19:19:41.997Z,23.80
2023-02-11T19:21:48.950Z,23.20
2023-02-11T19:23:56.048Z,23.85
2023-02-11T19:26:01.825Z,21.77
2023-02-11T19:28:07.043Z,21.45
2023-02-11T19:30:12.942Z,22.38
2023-02-11T19:32:18.318Z,21.73
2023-02-11T19:34:24.152Z,21.77
2023-02-11T19:36:32.136Z,20.45
2023-02-11T19:38:37.554Z,21.30
2023-02-11T19:40:42.407Z,19.42
2023-02-11T19:42:48.043Z,20.48
2023-02-11T19:44:53.016Z,21.08
2023-02-11T19:47:01.306Z,20.27
2023-02-11T19:49:07.132Z,21.63
2023-02-11T19:51:13.527Z,23.60
2023-02-11T19:53:21.292Z,22.17
2023-02-11T19:55:26.194Z,24.25
2023-02-11T19:57:31.132Z,22.00
2023-02-11T19:59:36.067Z,22.33
2023-02-11T20:01:41.118Z,19.58
2023-02-11T20:03:47.411Z,20.15
2023-02-11T20:05:52.529Z,21.30
2023-02-11T20:08:03.646Z,22.33
2023-02-11T20:10:12.114Z,23.08
2023-02-11T20:12:17.038Z,21.42
2023-02-11T20:14:22.028Z,22.88
2023-02-11T20:16:46.196Z,23.02
2023-02-11T20:18:55.890Z,23.60
2023-02-11T20:21:01.842Z,21.83
2023-02-11T20:23:06.773Z,24.45
2023-02-11T20:25:14.169Z,23.58
2023-02-11T20:27:20.125Z,21.75
2023-02-11T20:29:25.676Z,22.10
2023-02-11T20:31:32.223Z,23.02
2023-02-11T20:33:37.598Z,21.55
2023-02-11T20:35:42.473Z,22.77
2023-02-11T20:37:47.291Z,22.00
2023-02-11T20:39:54.717Z,24.08
2023-02-11T20:42:02.156Z,22.75
2023-02-11T20:44:08.954Z,23.83
2023-02-11T20:46:13.807Z,23.95
2023-02-11T20:48:18.784Z,22.85
2023-02-11T20:50:23.823Z,24.30
2023-02-11T20:54:33.697Z,23.00
2023-02-11T20:56:39.582Z,23.73
2023-02-11T20:58:47.364Z,25.25
2023-02-11T21:00:52.469Z,23.67
2023-02-11T21:03:00.270Z,24.23
2023-02-11T21:05:05.129Z,23.60
2023-02-11T21:07:10.053Z,24.75
2023-02-11T21:09:17.490Z,24.25
2023-02-11T21:11:22.591Z,22.23
2023-02-11T21:13:27.823Z,22.65
2023-02-11T21:17:40.121Z,25.33
2023-02-11T21:19:45.320Z,23.25
2023-02-11T21:23:56.196Z,23.48
2023-02-11T21:26:01.136Z,22.88
2023-02-11T21:28:06.454Z,24.75
2023-02-11T21:32:19.608Z,24.25
2023-02-11T21:34:24.664Z,23.08
2023-02-11T21:36:31.148Z,27.00
2023-02-11T21:38:36.421Z,23.33
2023-02-11T21:40:41.800Z,22.38
2023-02-11T21:42:46.712Z,21.80
2023-02-11T21:44:51.508Z,22.88
2023-02-11T21:46:56.565Z,23.45
2023-02-11T21:49:04.140Z,24.75
2023-02-11T21:51:11.606Z,24.45
2023-02-11T21:53:17.296Z,26.77
2023-02-11T21:55:22.282Z,26.15
2023-02-11T21:57:27.154Z,23.60
2023-02-11T21:59:33.583Z,24.52
2023-02-11T22:01:38.531Z,23.10
2023-02-11T22:03:43.442Z,22.33
2023-02-11T22:05:50.991Z,22.75
2023-02-11T22:07:55.864Z,21.42
2023-02-11T22:10:00.668Z,20.70
2023-02-11T22:12:05.533Z,22.92
2023-02-11T22:14:10.671Z,22.10
2023-02-11T22:16:17.088Z,23.13
2023-02-11T22:18:21.975Z,21.27
2023-02-11T22:20:26.831Z,24.45
2023-02-11T22:22:34.782Z,24.45
2023-02-11T22:24:40.909Z,24.00
2023-02-11T22:26:45.714Z,24.05
2023-02-11T22:28:50.989Z,22.13
2023-02-11T22:33:01.030Z,21.55
2023-02-11T22:35:05.939Z,20.38
2023-02-11T22:37:10.859Z,22.77
2023-02-11T22:39:20.073Z,23.52
2023-02-11T22:41:26.186Z,24.38
2023-02-11T22:43:31.035Z,22.27
2023-02-11T22:45:36.601Z,22.10
2023-02-11T22:47:41.856Z,26.75
2023-02-11T22:51:51.294Z,23.17
2023-02-11T22:53:57.899Z,25.25
2023-02-11T22:56:09.586Z,23.98
2023-02-11T22:58:14.539Z,25.38
2023-02-11T23:00:21.013Z,25.73
2023-02-11T23:02:26.058Z,26.42
2023-02-11T23:04:30.926Z,27.67
2023-02-11T23:06:35.905Z,28.40
2023-02-11T23:08:44.146Z,26.02
2023-02-11T23:10:49.591Z,25.00
2023-02-11T23:12:57.023Z,24.40
2023-02-11T23:15:04.886Z,24.13
2023-02-11T23:17:09.903Z,23.98
2023-02-11T23:19:14.757Z,27.58
2023-02-11T23:21:25.221Z,25.83
2023-02-11T23:23:30.100Z,25.55
2023-02-11T23:25:35.444Z,26.10
2023-02-11T23:27:40.536Z,25.67
2023-02-11T23:29:48.009Z,28.45
2023-02-11T23:31:53.057Z,28.60
2023-02-11T23:34:01.110Z,28.95
2023-02-11T23:36:06.063Z,25.23
2023-02-11T23:38:10.949Z,28.15
2023-02-11T23:40:16.825Z,27.77
2023-02-11T23:42:21.646Z,28.95
2023-02-11T23:44:26.496Z,27.23
2023-02-11T23:46:33.939Z,26.70
2023-02-11T23:48:40.600Z,27.45
2023-02-11T23:50:45.662Z,26.25
2023-02-11T23:52:50.622Z,24.17
2023-02-11T23:54:55.477Z,28.73
2023-02-11T23:57:00.676Z,26.65
2023-02-11T23:59:05.493Z,26.50
